createdAt,value
2022-11-06T00:02:09.497Z,96.00
2022-11-06T00:04:54.844Z,96.43
2022-11-06T00:07:40.174Z,95.82
2022-11-06T00:10:25.892Z,95.94
2022-11-06T00:13:11.589Z,96.19
2022-11-06T00:15:57.049Z,95.82
2022-11-06T00:18:42.698Z,95.76
2022-11-06T00:21:30.380Z,96.01
2022-11-06T00:24:16.457Z,95.76
2022-11-06T00:27:01.928Z,96.12
2022-11-06T00:29:47.427Z,95.80
2022-11-06T00:32:32.980Z,95.55
2022-11-06T00:35:18.338Z,95.44
2022-11-06T00:38:04.032Z,95.91
2022-11-06T00:40:49.683Z,95.51
2022-11-06T00:43:38.680Z,95.87
2022-11-06T00:46:24.834Z,95.62
2022-11-06T00:49:10.356Z,95.99
2022-11-06T00:51:55.866Z,95.83
2022-11-06T00:54:41.371Z,95.90
2022-11-06T00:57:26.718Z,95.94
2022-11-06T01:00:12.966Z,96.03
2022-11-06T01:02:58.752Z,95.54
2022-11-06T01:05:44.066Z,95.97
2022-11-06T01:08:29.628Z,95.66
2022-11-06T01:11:20.590Z,95.72
2022-11-06T01:14:07.039Z,95.38
2022-11-06T01:16:53.141Z,95.55
2022-11-06T01:19:38.713Z,95.70
2022-11-06T01:22:23.870Z,95.88
2022-11-06T01:25:09.273Z,95.42
2022-11-06T01:27:54.516Z,95.66
2022-11-06T01:30:39.961Z,95.46
2022-11-06T01:33:25.404Z,95.79
2022-11-06T01:36:13.496Z,95.63
2022-11-06T01:39:03.711Z,95.32
2022-11-06T01:41:51.675Z,95.53
2022-11-06T01:44:42.925Z,95.90
2022-11-06T01:47:29.444Z,95.74
2022-11-06T01:50:16.821Z,95.72
2022-11-06T01:53:02.777Z,95.62
2022-11-06T01:55:56.101Z,95.62
2022-11-06T01:58:44.218Z,95.78
2022-11-06T02:01:34.093Z,95.41
2022-11-06T02:04:25.611Z,95.71
2022-11-06T02:07:12.152Z,96.08
2022-11-06T02:09:57.447Z,95.92
2022-11-06T02:13:05.724Z,95.71
2022-11-06T02:16:11.179Z,95.56
2022-11-06T02:19:35.581Z,95.37
2022-11-06T02:22:48.664Z,95.83
2022-11-06T02:26:02.654Z,95.75
2022-11-06T02:28:56.004Z,95.27
2022-11-06T02:31:42.850Z,95.92
2022-11-06T02:34:30.189Z,95.52
2022-11-06T02:37:20.572Z,95.71
2022-11-06T02:40:09.753Z,95.65
2022-11-06T02:42:57.641Z,95.75
2022-11-06T02:45:52.342Z,95.67
2022-11-06T02:48:44.664Z,95.94
2022-11-06T02:51:33.878Z,96.08
2022-11-06T02:54:23.882Z,95.76
2022-11-06T02:57:15.667Z,95.46
2022-11-06T03:00:09.524Z,95.93
2022-11-06T03:03:02.642Z,95.85
2022-11-06T03:05:55.227Z,95.52
2022-11-06T03:09:16.086Z,95.47
2022-11-06T03:12:25.267Z,95.50
2022-11-06T03:15:24.977Z,95.76
2022-11-06T03:18:19.299Z,95.60
2022-11-06T03:21:27.853Z,96.08
2022-11-06T03:24:19.967Z,95.70
2022-11-06T03:27:17.060Z,95.82
2022-11-06T03:30:06.942Z,96.11
2022-11-06T03:33:17.492Z,95.90
2022-11-06T03:36:10.639Z,95.82
2022-11-06T03:39:05.563Z,95.71
2022-11-06T03:41:50.822Z,95.54
2022-11-06T03:44:41.497Z,95.73
2022-11-06T03:47:36.545Z,95.99
2022-11-06T03:50:28.379Z,95.68
2022-11-06T03:53:28.041Z,95.89
2022-11-06T03:56:29.071Z,95.60
2022-11-06T03:59:18.656Z,95.84
2022-11-06T04:02:04.204Z,96.31
2022-11-06T04:04:57.602Z,96.00
2022-11-06T04:08:08.203Z,96.03
2022-11-06T04:11:18.364Z,95.58
2022-11-06T04:14:05.988Z,95.76
2022-11-06T04:16:56.068Z,95.90
2022-11-06T04:19:52.382Z,95.75
2022-11-06T04:22:50.175Z,95.78
2022-11-06T04:26:21.227Z,96.02
2022-11-06T04:29:15.909Z,96.12
2022-11-06T04:32:20.513Z,96.23
2022-11-06T04:35:18.112Z,96.24
2022-11-06T04:38:10.963Z,96.27
2022-11-06T04:41:12.673Z,96.17
2022-11-06T04:44:29.084Z,95.91
2022-11-06T04:47:20.885Z,95.96
2022-11-06T04:50:09.547Z,96.36
2022-11-06T04:52:56.366Z,96.19
2022-11-06T04:55:50.200Z,95.91
2022-11-06T04:58:35.418Z,96.35
2022-11-06T05:01:21.357Z,95.94
2022-11-06T05:04:06.806Z,95.89
2022-11-06T05:06:52.274Z,96.39
2022-11-06T05:09:37.965Z,95.96
2022-11-06T05:12:23.436Z,96.17
2022-11-06T05:15:09.086Z,96.09
2022-11-06T05:17:54.777Z,96.02
2022-11-06T05:20:40.200Z,96.37
2022-11-06T05:23:25.596Z,96.10
2022-11-06T05:26:11.108Z,96.08
2022-11-06T05:28:56.655Z,96.15
2022-11-06T05:31:42.100Z,96.03
2022-11-06T05:34:27.864Z,95.88
2022-11-06T05:37:13.484Z,96.12
2022-11-06T05:39:58.870Z,96.21
2022-11-06T05:42:44.720Z,96.30
2022-11-06T05:45:30.208Z,96.48
2022-11-06T05:48:15.931Z,95.92
2022-11-06T05:51:07.335Z,95.80
2022-11-06T05:53:52.989Z,96.27
2022-11-06T05:56:38.365Z,95.86
2022-11-06T05:59:23.803Z,96.12
2022-11-06T06:02:09.919Z,96.22
2022-11-06T06:04:55.400Z,96.27
2022-11-06T06:07:41.288Z,96.26
2022-11-06T06:10:26.511Z,95.94
2022-11-06T06:13:12.786Z,96.19
2022-11-06T06:16:01.890Z,96.31
2022-11-06T06:18:49.982Z,96.06
2022-11-06T06:21:36.728Z,95.88
2022-11-06T06:24:22.183Z,96.12
2022-11-06T06:27:07.620Z,96.03
2022-11-06T06:29:54.112Z,95.81
2022-11-06T06:32:39.843Z,95.66
2022-11-06T06:35:25.241Z,96.06
2022-11-06T06:38:11.102Z,95.97
2022-11-06T06:41:04.127Z,95.90
2022-11-06T06:43:49.676Z,95.88
2022-11-06T06:46:35.282Z,95.66
2022-11-06T06:49:20.775Z,96.01
2022-11-06T06:52:06.153Z,95.68
2022-11-06T06:54:51.588Z,96.25
2022-11-06T06:57:37.018Z,96.05
2022-11-06T07:00:22.386Z,96.10
2022-11-06T07:03:08.316Z,95.79
2022-11-06T07:05:54.226Z,95.63
2022-11-06T07:08:39.615Z,95.90
2022-11-06T07:11:24.984Z,95.66
2022-11-06T07:14:11.074Z,95.96
2022-11-06T07:16:56.416Z,95.77
2022-11-06T07:19:41.810Z,96.07
2022-11-06T07:22:32.361Z,95.80
2022-11-06T07:25:22.459Z,95.85
2022-11-06T07:28:08.753Z,95.89
2022-11-06T07:30:59.768Z,95.94
2022-11-06T07:33:45.645Z,96.00
2022-11-06T07:36:32.982Z,96.09
2022-11-06T07:39:18.272Z,96.21
2022-11-06T07:42:03.740Z,96.15
2022-11-06T07:44:55.619Z,96.27
2022-11-06T07:47:40.991Z,95.84
2022-11-06T07:50:27.003Z,96.21
2022-11-06T07:53:12.464Z,96.64
2022-11-06T07:55:58.087Z,96.10
2022-11-06T07:58:43.774Z,96.31
2022-11-06T08:01:29.532Z,96.44
2022-11-06T08:04:14.996Z,96.51
2022-11-06T08:07:00.250Z,96.39
2022-11-06T08:09:45.942Z,96.57
2022-11-06T08:12:31.444Z,96.34
2022-11-06T08:15:17.060Z,96.24
2022-11-06T08:18:02.525Z,96.49
2022-11-06T08:20:48.061Z,96.47
2022-11-06T08:23:35.124Z,96.46
2022-11-06T08:26:20.472Z,96.35
2022-11-06T08:29:06.004Z,96.43
2022-11-06T08:31:51.665Z,96.49
2022-11-06T08:34:37.368Z,96.75
2022-11-06T08:37:22.789Z,96.36
2022-11-06T08:40:08.838Z,96.14
2022-11-06T08:42:59.074Z,96.61
2022-11-06T08:45:44.708Z,96.57
2022-11-06T08:48:30.244Z,96.56
2022-11-06T08:51:15.662Z,96.42
2022-11-06T08:54:01.108Z,96.60
2022-11-06T08:56:46.383Z,96.32
2022-11-06T08:59:32.942Z,96.65
2022-11-06T09:02:18.604Z,96.35
2022-11-06T09:05:04.117Z,96.43
2022-11-06T09:07:49.820Z,96.74
2022-11-06T09:10:35.387Z,96.71
2022-11-06T09:13:20.912Z,96.79
2022-11-06T09:16:11.351Z,96.82
2022-11-06T09:19:00.187Z,96.63
2022-11-06T09:21:48.056Z,96.64
2022-11-06T09:25:01.888Z,97.05
2022-11-06T09:27:44.531Z,96.46
2022-11-06T09:30:31.982Z,96.81
2022-11-06T09:33:17.630Z,96.44
2022-11-06T09:36:07.144Z,96.89
2022-11-06T09:38:52.957Z,96.56
2022-11-06T09:42:06.344Z,96.88
2022-11-06T09:45:13.834Z,96.88
2022-11-06T09:48:05.474Z,96.68
2022-11-06T09:51:16.876Z,96.24
2022-11-06T09:54:14.957Z,96.76
2022-11-06T09:57:11.443Z,96.38
2022-11-06T09:59:57.936Z,96.19
2022-11-06T10:02:49.267Z,96.93
2022-11-06T10:05:37.040Z,97.02
2022-11-06T10:08:28.537Z,96.54
2022-11-06T10:11:17.040Z,96.27
2022-11-06T10:14:27.459Z,96.39
2022-11-06T10:17:21.751Z,96.46
2022-11-06T10:20:25.460Z,96.77
2022-11-06T10:23:12.534Z,96.13
2022-11-06T10:26:10.610Z,96.23
2022-11-06T10:29:15.101Z,96.87
2022-11-06T10:32:19.686Z,97.09
2022-11-06T10:35:25.714Z,96.64
2022-11-06T10:38:18.511Z,96.73
2022-11-06T10:41:04.684Z,96.69
2022-11-06T10:44:02.112Z,96.88
2022-11-06T10:47:04.580Z,96.92
2022-11-06T10:49:55.427Z,96.13
2022-11-06T10:52:56.204Z,96.53
2022-11-06T10:56:08.145Z,96.04
2022-11-06T10:58:56.439Z,96.90
2022-11-06T11:01:42.144Z,96.24
2022-11-06T11:04:27.921Z,96.49
2022-11-06T11:07:21.389Z,96.31
2022-11-06T11:10:28.422Z,96.14
2022-11-06T11:13:20.856Z,96.04
2022-11-06T11:16:16.042Z,96.13
2022-11-06T11:19:35.601Z,96.51
2022-11-06T11:22:22.099Z,96.43
2022-11-06T11:25:24.758Z,96.32
2022-11-06T11:28:27.504Z,96.34
2022-11-06T11:31:16.211Z,96.14
2022-11-06T11:34:15.809Z,96.68
2022-11-06T11:37:06.894Z,96.20
2022-11-06T11:39:52.300Z,96.20
2022-11-06T11:42:37.899Z,96.13
2022-11-06T11:45:23.348Z,95.98
2022-11-06T11:48:14.434Z,96.19
2022-11-06T11:51:12.994Z,96.41
2022-11-06T11:54:26.915Z,96.17
2022-11-06T11:57:23.787Z,96.38
2022-11-06T12:00:19.316Z,96.27
2022-11-06T12:03:11.144Z,95.73
2022-11-06T12:06:08.287Z,96.05
2022-11-06T12:08:55.830Z,95.75
2022-11-06T12:11:43.840Z,96.14
2022-11-06T12:14:33.638Z,95.85
2022-11-06T12:17:22.733Z,96.09
2022-11-06T12:20:17.642Z,95.93
2022-11-06T12:23:06.579Z,95.93
2022-11-06T12:26:04.977Z,96.02
2022-11-06T12:28:54.546Z,95.75
2022-11-06T12:31:47.856Z,96.21
2022-11-06T12:35:01.503Z,96.07
2022-11-06T12:38:02.546Z,95.98
2022-11-06T12:41:26.267Z,95.77
2022-11-06T12:44:15.065Z,95.90
2022-11-06T12:47:08.326Z,95.82
2022-11-06T12:50:12.017Z,95.99
2022-11-06T12:53:16.185Z,96.11
2022-11-06T12:57:02.464Z,96.05
2022-11-06T13:00:09.989Z,96.15
2022-11-06T13:06:22.701Z,96.04
2022-11-06T13:09:11.897Z,96.35
2022-11-06T13:12:09.178Z,95.64
2022-11-06T13:15:21.136Z,95.89
2022-11-06T13:18:25.733Z,95.79
2022-11-06T13:21:39.119Z,95.62
2022-11-06T13:25:07.291Z,96.03
2022-11-06T13:28:06.648Z,95.57
2022-11-06T13:30:54.125Z,95.90
2022-11-06T13:33:45.257Z,95.99
2022-11-06T13:36:32.080Z,95.78
2022-11-06T13:39:29.799Z,95.64
2022-11-06T13:42:34.171Z,95.72
2022-11-06T13:45:21.786Z,95.56
2022-11-06T13:48:26.112Z,95.25
2022-11-06T13:51:24.168Z,94.96
2022-11-06T13:54:28.174Z,95.40
2022-11-06T13:57:52.900Z,95.19
2022-11-06T14:00:53.453Z,94.93
2022-11-06T14:04:13.276Z,94.74
2022-11-06T14:07:04.190Z,94.69
2022-11-06T14:09:49.502Z,94.63
2022-11-06T14:12:35.278Z,94.70
2022-11-06T14:15:20.465Z,94.73
2022-11-06T14:18:06.306Z,94.04
2022-11-06T14:21:30.347Z,94.51
2022-11-06T14:24:29.737Z,94.24
2022-11-06T14:27:24.239Z,94.07
2022-11-06T14:30:57.519Z,93.60
2022-11-06T14:33:43.881Z,93.96
2022-11-06T14:36:38.535Z,93.61
2022-11-06T14:39:55.978Z,93.55
2022-11-06T14:42:47.492Z,93.19
2022-11-06T14:45:33.053Z,93.57
2022-11-06T14:48:34.062Z,93.30
2022-11-06T14:51:26.928Z,93.35
2022-11-06T14:54:22.418Z,93.65
2022-11-06T14:57:15.425Z,93.55
2022-11-06T15:00:01.673Z,93.77
2022-11-06T15:02:48.833Z,93.61
2022-11-06T15:05:42.126Z,94.29
2022-11-06T15:08:46.625Z,93.49
2022-11-06T15:11:50.066Z,93.45
2022-11-06T15:14:35.119Z,93.60
2022-11-06T15:17:22.439Z,94.09
2022-11-06T15:20:18.202Z,93.63
2022-11-06T15:23:11.304Z,93.52
2022-11-06T15:26:05.194Z,93.85
2022-11-06T15:29:11.730Z,93.30
2022-11-06T15:32:26.156Z,93.89
2022-11-06T15:35:27.621Z,93.19
2022-11-06T15:38:21.652Z,93.43
2022-11-06T15:41:27.747Z,93.18
2022-11-06T15:44:13.231Z,93.43
2022-11-06T15:46:59.550Z,93.40
2022-11-06T15:49:45.188Z,93.54
2022-11-06T15:52:30.864Z,93.71
2022-11-06T15:55:28.976Z,92.77
2022-11-06T15:58:24.713Z,92.86
2022-11-06T16:01:12.295Z,92.90
2022-11-06T16:03:57.821Z,92.57
2022-11-06T16:06:44.377Z,92.83
2022-11-06T16:09:29.874Z,92.14
2022-11-06T16:12:18.121Z,92.40
2022-11-06T16:15:03.643Z,92.25
2022-11-06T16:17:49.424Z,92.49
2022-11-06T16:20:34.941Z,92.33
2022-11-06T16:24:02.871Z,92.71
2022-11-06T16:26:50.730Z,92.78
2022-11-06T16:29:37.509Z,92.75
2022-11-06T16:32:26.838Z,92.97
2022-11-06T16:35:32.587Z,92.92
2022-11-06T16:38:40.613Z,92.83
2022-11-06T16:42:08.759Z,92.88
2022-11-06T16:45:20.407Z,93.43
2022-11-06T16:48:05.776Z,93.11
2022-11-06T16:50:57.175Z,93.26
2022-11-06T16:53:58.898Z,93.13
2022-11-06T16:56:44.446Z,93.37
2022-11-06T16:59:29.804Z,93.05
2022-11-06T17:02:24.544Z,93.42
2022-11-06T17:05:22.698Z,93.50
2022-11-06T17:08:25.279Z,93.36
2022-11-06T17:11:13.769Z,93.32
2022-11-06T17:13:59.391Z,93.50
2022-11-06T17:16:49.573Z,93.43
2022-11-06T17:19:35.516Z,93.49
2022-11-06T17:22:22.782Z,93.08
2022-11-06T17:25:08.540Z,93.62
2022-11-06T17:27:54.224Z,93.69
2022-11-06T17:30:40.220Z,93.65
2022-11-06T17:33:25.768Z,93.78
2022-11-06T17:36:27.198Z,93.48
2022-11-06T17:39:13.465Z,93.77
2022-11-06T17:41:59.308Z,93.53
2022-11-06T17:44:44.866Z,93.44
2022-11-06T17:47:30.179Z,93.32
2022-11-06T17:50:15.798Z,93.59
2022-11-06T17:53:01.217Z,93.69
2022-11-06T17:55:46.801Z,93.73
2022-11-06T17:58:33.627Z,93.87
2022-11-06T18:01:19.112Z,93.95
2022-11-06T18:04:05.311Z,93.81
2022-11-06T18:06:52.353Z,94.01
2022-11-06T18:09:38.083Z,93.94
2022-11-06T18:12:27.456Z,93.84
2022-11-06T18:15:13.155Z,93.92
2022-11-06T18:17:59.498Z,94.05
2022-11-06T18:20:46.436Z,94.17
2022-11-06T18:23:31.891Z,94.06
2022-11-06T18:26:21.220Z,94.37
2022-11-06T18:29:08.325Z,94.29
2022-11-06T18:31:54.354Z,94.19
2022-11-06T18:34:40.460Z,94.41
2022-11-06T18:37:26.228Z,94.16
2022-11-06T18:40:12.564Z,94.32
2022-11-06T18:42:58.306Z,94.06
2022-11-06T18:45:43.849Z,94.26
2022-11-06T18:48:31.007Z,94.18
2022-11-06T18:51:33.861Z,94.30
2022-11-06T18:54:21.189Z,94.21
2022-11-06T18:57:06.929Z,93.92
2022-11-06T18:59:52.407Z,94.53
2022-11-06T19:02:38.155Z,94.12
2022-11-06T19:05:23.576Z,94.04
2022-11-06T19:08:09.035Z,93.87
2022-11-06T19:10:54.420Z,94.12
2022-11-06T19:13:43.442Z,93.97
2022-11-06T19:16:32.870Z,93.98
2022-11-06T19:19:25.242Z,93.84
2022-11-06T19:22:11.613Z,94.26
2022-11-06T19:24:57.144Z,94.15
2022-11-06T19:27:42.644Z,94.06
2022-11-06T19:30:28.305Z,93.84
2022-11-06T19:33:14.173Z,94.20
2022-11-06T19:36:01.271Z,94.31
2022-11-06T19:38:47.210Z,94.15
2022-11-06T19:41:32.850Z,94.06
2022-11-06T19:44:18.570Z,93.97
2022-11-06T19:47:04.025Z,94.42
2022-11-06T19:49:49.391Z,94.54
2022-11-06T19:52:41.423Z,94.52
2022-11-06T19:55:28.806Z,94.40
2022-11-06T19:58:19.028Z,94.09
2022-11-06T20:01:10.156Z,94.68
2022-11-06T20:03:55.675Z,94.25
2022-11-06T20:06:41.375Z,94.21
2022-11-06T20:09:26.550Z,94.29
2022-11-06T20:12:15.343Z,94.63
2022-11-06T20:15:00.601Z,94.58
2022-11-06T20:17:46.076Z,94.65
2022-11-06T20:20:35.922Z,94.59
2022-11-06T20:23:22.239Z,94.35
2022-11-06T20:26:07.840Z,94.53
2022-11-06T20:28:53.115Z,94.73
2022-11-06T20:31:39.032Z,94.77
2022-11-06T20:34:24.329Z,94.54
2022-11-06T20:37:09.728Z,94.87
2022-11-06T20:39:55.088Z,94.70
2022-11-06T20:42:40.511Z,95.01
2022-11-06T20:45:25.851Z,94.85
2022-11-06T20:48:11.511Z,94.62
2022-11-06T20:51:02.250Z,95.04
2022-11-06T20:53:48.167Z,94.96
2022-11-06T20:56:33.915Z,94.94
2022-11-06T20:59:19.418Z,95.17
2022-11-06T21:02:05.079Z,95.05
2022-11-06T21:04:50.798Z,95.06
2022-11-06T21:07:36.476Z,94.76
2022-11-06T21:10:21.575Z,94.54
2022-11-06T21:13:07.062Z,94.97
2022-11-06T21:15:59.390Z,94.79
2022-11-06T21:18:46.100Z,94.64
2022-11-06T21:21:34.558Z,94.83
2022-11-06T21:24:20.066Z,94.90
2022-11-06T21:27:05.406Z,94.86
2022-11-06T21:29:50.943Z,94.51
2022-11-06T21:32:36.415Z,94.90
2022-11-06T21:35:21.836Z,94.77
2022-11-06T21:38:07.749Z,94.57
2022-11-06T21:40:53.088Z,94.90
2022-11-06T21:43:38.810Z,94.69
2022-11-06T21:46:24.694Z,94.91
2022-11-06T21:49:10.456Z,94.68
2022-11-06T21:52:16.026Z,95.04
2022-11-06T21:55:24.680Z,95.03
2022-11-06T21:58:10.037Z,95.02
2022-11-06T22:00:55.519Z,95.03
2022-11-06T22:03:41.425Z,94.90
2022-11-06T22:06:28.483Z,95.45
2022-11-06T22:09:14.374Z,95.08
2022-11-06T22:11:59.909Z,94.99
2022-11-06T22:14:45.232Z,94.88
2022-11-06T22:17:31.399Z,95.37
2022-11-06T22:20:17.504Z,95.00
2022-11-06T22:23:03.142Z,94.90
2022-11-06T22:25:48.657Z,94.91
2022-11-06T22:28:34.666Z,94.87
2022-11-06T22:31:20.238Z,95.06
2022-11-06T22:34:05.705Z,95.09
2022-11-06T22:36:51.075Z,95.04
2022-11-06T22:39:36.525Z,95.13
2022-11-06T22:42:22.083Z,94.87
2022-11-06T22:45:07.911Z,95.03
2022-11-06T22:47:53.490Z,95.03
2022-11-06T22:50:39.258Z,95.42
2022-11-06T22:53:24.598Z,95.27
2022-11-06T22:56:12.540Z,94.95
2022-11-06T22:59:01.002Z,95.10
2022-11-06T23:01:46.474Z,95.43
2022-11-06T23:04:31.840Z,95.24
2022-11-06T23:07:17.129Z,95.05
2022-11-06T23:10:02.643Z,95.14
2022-11-06T23:12:47.895Z,95.18
2022-11-06T23:15:33.343Z,95.29
2022-11-06T23:18:18.855Z,94.87
2022-11-06T23:21:15.806Z,95.22
2022-11-06T23:24:01.120Z,95.47
2022-11-06T23:26:47.501Z,95.36
2022-11-06T23:29:32.924Z,95.10
2022-11-06T23:32:18.623Z,95.09
2022-11-06T23:35:09.159Z,95.16
2022-11-06T23:37:58.411Z,95.15
2022-11-06T23:40:43.854Z,94.90
2022-11-06T23:43:29.267Z,95.30
2022-11-06T23:46:26.094Z,95.43
2022-11-06T23:49:11.561Z,95.12
2022-11-06T23:51:57.175Z,95.41
2022-11-06T23:54:42.710Z,95.28
2022-11-06T23:57:28.432Z,95.08
